createdAt,value
2022-07-30T00:00:50.579Z,5.13
2022-07-30T00:03:18.005Z,6.65
2022-07-30T00:05:45.226Z,4.32
2022-07-30T00:08:12.303Z,4.38
2022-07-30T00:10:39.537Z,5.10
2022-07-30T00:13:07.214Z,5.00
2022-07-30T00:15:34.422Z,5.47
2022-07-30T00:18:01.531Z,5.57
2022-07-30T00:20:29.046Z,5.57
2022-07-30T00:22:56.226Z,4.32
2022-07-30T00:25:23.234Z,4.35
2022-07-30T00:27:50.153Z,5.43
2022-07-30T00:30:17.101Z,4.70
2022-07-30T00:32:44.094Z,5.53
2022-07-30T00:35:11.377Z,4.60
2022-07-30T00:37:38.465Z,4.40
2022-07-30T00:40:07.147Z,4.97
2022-07-30T00:42:38.673Z,6.60
2022-07-30T00:45:07.470Z,4.85
2022-07-30T00:47:34.581Z,6.55
2022-07-30T00:50:01.615Z,5.43
2022-07-30T00:52:28.503Z,5.85
2022-07-30T00:54:55.504Z,4.22
2022-07-30T00:57:22.429Z,5.65
2022-07-30T00:59:50.056Z,4.13
2022-07-30T01:02:17.082Z,4.85
2022-07-30T01:04:44.212Z,5.63
2022-07-30T01:07:11.591Z,5.00
2022-07-30T01:09:39.457Z,4.38
2022-07-30T01:12:09.537Z,6.15
2022-07-30T01:14:37.621Z,6.40
2022-07-30T01:17:04.963Z,4.50
2022-07-30T01:19:37.006Z,4.75
2022-07-30T01:22:12.458Z,5.47
2022-07-30T01:24:44.582Z,4.90
2022-07-30T01:27:14.014Z,5.65
2022-07-30T01:29:45.962Z,4.55
2022-07-30T01:32:14.680Z,5.07
2022-07-30T01:34:43.553Z,13.88
2022-07-30T01:37:11.695Z,14.82
2022-07-30T01:39:40.103Z,14.35
2022-07-30T01:42:08.816Z,13.43
2022-07-30T01:44:37.840Z,7.70
2022-07-30T01:47:05.680Z,8.55
2022-07-30T01:49:36.503Z,8.02
2022-07-30T01:52:05.426Z,10.00
2022-07-30T01:54:33.773Z,9.55
2022-07-30T01:57:02.749Z,6.57
2022-07-30T01:59:33.480Z,7.32
2022-07-30T02:02:00.817Z,7.22
2022-07-30T02:04:27.985Z,8.05
2022-07-30T02:07:13.289Z,7.13
2022-07-30T02:09:59.695Z,7.07
2022-07-30T02:12:29.983Z,6.82
2022-07-30T02:15:25.360Z,7.60
2022-07-30T02:18:02.837Z,6.60
2022-07-30T02:20:35.779Z,6.78
2022-07-30T02:23:12.572Z,9.98
2022-07-30T02:25:46.438Z,9.02
2022-07-30T02:28:15.371Z,10.85
2022-07-30T02:30:59.134Z,9.95
2022-07-30T02:33:34.183Z,10.65
2022-07-30T02:36:03.628Z,32.20
2022-07-30T02:38:41.362Z,16.55
2022-07-30T02:41:10.448Z,10.35
2022-07-30T02:43:40.981Z,13.07
2022-07-30T02:49:01.240Z,13.55
2022-07-30T02:51:30.754Z,10.23
2022-07-30T02:54:00.266Z,10.02
2022-07-30T02:56:29.381Z,9.50
2022-07-30T02:58:57.830Z,10.88
2022-07-30T03:01:25.884Z,12.15
2022-07-30T03:03:54.365Z,12.98
2022-07-30T03:06:22.671Z,12.13
2022-07-30T03:08:50.092Z,11.77
2022-07-30T03:11:19.382Z,11.27
2022-07-30T03:13:46.542Z,11.70
2022-07-30T03:16:17.296Z,9.52
2022-07-30T03:18:45.421Z,14.27
2022-07-30T03:21:14.949Z,9.15
2022-07-30T03:23:44.631Z,12.27
2022-07-30T03:26:12.463Z,13.82
2022-07-30T03:28:40.499Z,13.57
2022-07-30T03:31:08.215Z,11.75
2022-07-30T03:33:38.581Z,10.77
2022-07-30T03:36:07.958Z,9.55
2022-07-30T03:38:38.019Z,11.80
2022-07-30T03:41:07.286Z,9.55
2022-07-30T03:43:35.741Z,8.65
2022-07-30T03:46:04.329Z,8.43
2022-07-30T03:48:35.352Z,8.23
2022-07-30T03:51:08.014Z,8.05
2022-07-30T03:53:35.809Z,9.18
2022-07-30T03:56:21.695Z,8.63
2022-07-30T03:59:07.101Z,8.93
2022-07-30T04:01:37.425Z,8.32
2022-07-30T04:04:17.178Z,8.40
2022-07-30T04:06:44.167Z,10.15
2022-07-30T04:09:14.726Z,8.43
2022-07-30T04:11:42.253Z,9.65
2022-07-30T04:14:16.368Z,8.90
2022-07-30T04:17:02.486Z,9.15
2022-07-30T04:19:38.779Z,9.77
2022-07-30T04:22:08.712Z,11.43
2022-07-30T04:27:27.164Z,16.90
2022-07-30T04:29:55.220Z,10.95
2022-07-30T04:32:22.376Z,13.48
2022-07-30T04:35:04.958Z,13.45
2022-07-30T04:38:01.710Z,10.35
2022-07-30T04:40:29.338Z,9.38
2022-07-30T04:42:56.671Z,11.23
2022-07-30T04:45:24.417Z,11.05
2022-07-30T04:47:57.560Z,10.27
2022-07-30T04:50:38.572Z,10.65
2022-07-30T04:53:08.702Z,8.85
2022-07-30T04:55:44.982Z,9.90
2022-07-30T04:58:15.307Z,9.88
2022-07-30T05:00:44.518Z,8.95
2022-07-30T05:03:16.260Z,9.48
2022-07-30T05:05:56.750Z,9.77
2022-07-30T05:08:25.608Z,8.38
2022-07-30T05:10:53.302Z,8.60
2022-07-30T05:13:22.277Z,9.55
2022-07-30T05:15:49.713Z,8.50
2022-07-30T05:18:18.591Z,8.38
2022-07-30T05:20:46.982Z,9.75
2022-07-30T05:23:22.470Z,9.07
2022-07-30T05:26:19.728Z,8.70
2022-07-30T05:28:53.609Z,9.40
2022-07-30T05:31:29.883Z,8.30
2022-07-30T05:34:03.639Z,7.85
2022-07-30T05:36:40.668Z,8.07
2022-07-30T05:39:26.868Z,8.35
2022-07-30T05:42:02.790Z,8.25
2022-07-30T05:48:00.903Z,8.20
2022-07-30T05:50:28.097Z,8.93
2022-07-30T05:52:55.084Z,7.60
2022-07-30T05:56:00.427Z,7.63
2022-07-30T05:58:46.222Z,9.30
2022-07-30T06:01:17.879Z,7.47
2022-07-30T06:03:45.518Z,8.68
2022-07-30T06:06:31.127Z,8.30
2022-07-30T06:08:58.188Z,7.95
2022-07-30T06:11:25.334Z,7.05
2022-07-30T06:13:52.266Z,8.30
2022-07-30T06:16:19.725Z,7.18
2022-07-30T06:18:46.912Z,6.40
2022-07-30T06:21:23.409Z,7.45
2022-07-30T06:24:10.596Z,10.35
2022-07-30T06:26:55.419Z,6.43
2022-07-30T06:29:22.365Z,6.50
2022-07-30T06:31:49.391Z,9.13
2022-07-30T06:34:16.477Z,5.85
2022-07-30T06:36:43.697Z,6.60
2022-07-30T06:39:56.909Z,6.82
2022-07-30T06:42:28.048Z,6.10
2022-07-30T06:45:13.450Z,6.78
2022-07-30T06:47:59.805Z,6.07
2022-07-30T06:50:29.417Z,5.43
2022-07-30T06:52:56.348Z,6.00
2022-07-30T06:55:24.746Z,5.50
2022-07-30T06:57:53.137Z,6.95
2022-07-30T07:00:38.846Z,6.10
2022-07-30T07:03:12.310Z,6.15
2022-07-30T07:05:39.305Z,7.60
2022-07-30T07:08:06.270Z,6.47
2022-07-30T07:10:41.251Z,6.35
2022-07-30T07:13:21.304Z,6.50
2022-07-30T07:15:48.511Z,8.25
2022-07-30T07:18:20.128Z,6.53
2022-07-30T07:20:52.272Z,6.20
2022-07-30T07:23:19.790Z,6.85
2022-07-30T07:25:49.681Z,7.30
2022-07-30T07:28:16.900Z,6.40
2022-07-30T07:30:44.778Z,10.02
2022-07-30T07:33:15.445Z,6.63
2022-07-30T07:35:49.438Z,8.32
2022-07-30T07:38:24.949Z,6.40
2022-07-30T07:40:53.771Z,6.45
2022-07-30T07:43:21.352Z,4.80
2022-07-30T07:45:48.480Z,5.40
2022-07-30T07:48:15.628Z,5.40
2022-07-30T07:50:49.469Z,6.78
2022-07-30T07:53:24.818Z,5.88
2022-07-30T07:55:52.675Z,5.28
2022-07-30T07:58:26.203Z,5.35
2022-07-30T08:00:56.960Z,5.30
2022-07-30T08:03:38.089Z,4.95
2022-07-30T08:06:22.129Z,5.72
2022-07-30T08:09:21.083Z,5.20
2022-07-30T08:12:08.423Z,7.05
2022-07-30T08:14:58.545Z,7.70
2022-07-30T08:17:40.441Z,5.78
2022-07-30T08:20:12.897Z,5.72
2022-07-30T08:22:40.297Z,5.20
2022-07-30T08:25:08.623Z,5.90
2022-07-30T08:27:35.624Z,5.43
2022-07-30T08:30:09.842Z,6.78
2022-07-30T08:32:36.923Z,6.32
2022-07-30T08:35:05.666Z,7.28
2022-07-30T08:37:34.515Z,6.45
2022-07-30T08:40:03.307Z,5.68
2022-07-30T08:42:33.316Z,7.40
2022-07-30T08:45:00.623Z,6.03
2022-07-30T08:47:40.760Z,6.78
2022-07-30T08:50:10.911Z,6.35
2022-07-30T08:52:53.443Z,6.18
2022-07-30T08:55:21.286Z,7.68
2022-07-30T08:57:49.096Z,6.57
2022-07-30T09:00:17.497Z,7.25
2022-07-30T09:02:44.979Z,6.75
2022-07-30T09:05:13.317Z,7.10
2022-07-30T09:07:40.872Z,7.40
2022-07-30T09:10:12.948Z,7.85
2022-07-30T09:12:44.720Z,7.20
2022-07-30T09:15:20.431Z,7.30
2022-07-30T09:18:04.326Z,6.30
2022-07-30T09:20:36.204Z,6.95
2022-07-30T09:23:06.942Z,7.68
2022-07-30T09:25:52.726Z,6.60
2022-07-30T09:28:38.356Z,6.47
2022-07-30T09:31:14.897Z,7.07
2022-07-30T09:34:00.543Z,7.55
2022-07-30T09:37:05.419Z,6.70
2022-07-30T09:40:18.193Z,7.40
2022-07-30T09:43:27.709Z,7.68
2022-07-30T09:46:04.386Z,7.20
2022-07-30T09:48:31.289Z,7.20
2022-07-30T09:50:58.170Z,8.13
2022-07-30T09:53:25.107Z,8.15
2022-07-30T09:55:52.268Z,7.00
2022-07-30T09:58:27.200Z,7.32
2022-07-30T10:00:57.369Z,9.32
2022-07-30T10:03:46.625Z,7.60
2022-07-30T10:06:38.350Z,8.18
2022-07-30T10:09:27.380Z,9.13
2022-07-30T10:12:00.621Z,11.18
2022-07-30T10:14:42.565Z,9.73
2022-07-30T10:17:12.770Z,11.57
2022-07-30T10:19:42.218Z,11.18
2022-07-30T10:22:28.945Z,10.75
2022-07-30T10:25:19.494Z,11.68
2022-07-30T10:28:15.494Z,14.23
2022-07-30T10:30:44.174Z,13.32
2022-07-30T10:33:11.468Z,9.55
2022-07-30T10:35:58.811Z,11.00
2022-07-30T10:38:30.979Z,11.40
2022-07-30T10:41:05.586Z,11.07
2022-07-30T10:43:41.894Z,9.88
2022-07-30T10:46:34.008Z,9.45
2022-07-30T10:49:19.211Z,10.45
2022-07-30T10:51:52.502Z,15.27
2022-07-30T10:54:36.659Z,14.00
2022-07-30T10:57:23.097Z,10.45
2022-07-30T11:00:00.023Z,7.65
2022-07-30T11:02:31.874Z,8.20
2022-07-30T11:08:48.155Z,11.02
2022-07-30T11:11:28.734Z,9.13
2022-07-30T11:14:08.634Z,6.57
2022-07-30T11:16:35.510Z,6.85
2022-07-30T11:22:30.805Z,7.72
2022-07-30T11:24:58.297Z,7.50
2022-07-30T11:27:45.465Z,6.70
2022-07-30T11:30:17.081Z,5.90
2022-07-30T11:32:44.656Z,6.30
2022-07-30T11:35:34.862Z,6.18
2022-07-30T11:38:15.095Z,6.07
2022-07-30T11:40:48.737Z,4.82
2022-07-30T11:43:35.190Z,6.88
2022-07-30T11:46:16.350Z,4.70
2022-07-30T11:48:57.159Z,4.85
2022-07-30T11:51:24.815Z,2.47
2022-07-30T11:54:02.772Z,1.90
2022-07-30T11:56:30.313Z,1.70
2022-07-30T11:59:08.512Z,3.38
2022-07-30T12:01:36.139Z,1.95
2022-07-30T12:04:06.988Z,1.85
2022-07-30T12:06:33.961Z,2.42
2022-07-30T12:09:00.889Z,1.50
2022-07-30T12:11:35.194Z,2.40
2022-07-30T12:14:02.550Z,2.53
2022-07-30T12:16:31.629Z,1.50
2022-07-30T12:19:06.088Z,1.50
2022-07-30T12:21:33.925Z,1.40
2022-07-30T12:24:03.167Z,1.40
2022-07-30T12:26:32.673Z,1.65
2022-07-30T12:29:02.236Z,1.48
2022-07-30T12:31:29.427Z,1.27
2022-07-30T12:33:58.276Z,2.15
2022-07-30T12:36:30.629Z,2.05
2022-07-30T12:38:58.009Z,1.83
2022-07-30T12:41:44.225Z,1.55
2022-07-30T12:44:11.267Z,2.17
2022-07-30T12:46:41.670Z,1.52
2022-07-30T12:49:21.612Z,2.05
2022-07-30T12:54:28.124Z,1.33
2022-07-30T12:57:05.177Z,0.93
2022-07-30T12:59:33.201Z,0.93
2022-07-30T13:02:00.721Z,1.08
2022-07-30T13:04:28.399Z,1.00
2022-07-30T13:07:08.206Z,1.80
2022-07-30T13:09:35.828Z,0.77
2022-07-30T13:12:03.511Z,1.10
2022-07-30T13:14:30.595Z,0.85
2022-07-30T13:16:57.530Z,1.30
2022-07-30T13:19:25.721Z,2.25
2022-07-30T13:21:52.712Z,0.95
2022-07-30T13:24:21.065Z,1.30
2022-07-30T13:27:01.396Z,0.88
2022-07-30T13:29:28.544Z,1.88
2022-07-30T13:31:55.472Z,1.75
2022-07-30T13:34:22.335Z,1.23
2022-07-30T13:36:49.199Z,1.50
2022-07-30T13:39:16.142Z,1.60
2022-07-30T13:41:43.057Z,1.98
2022-07-30T13:44:10.018Z,1.95
2022-07-30T13:46:37.053Z,1.85
2022-07-30T13:49:04.112Z,2.00
2022-07-30T13:51:31.057Z,2.28
2022-07-30T13:53:57.917Z,2.38
2022-07-30T13:56:24.784Z,2.45
2022-07-30T13:58:51.645Z,1.67
2022-07-30T14:01:18.735Z,1.23
2022-07-30T14:03:49.907Z,2.28
2022-07-30T14:06:19.177Z,1.20
2022-07-30T14:08:46.382Z,1.27
2022-07-30T14:11:13.501Z,0.80
2022-07-30T14:13:40.874Z,0.90
2022-07-30T14:16:28.341Z,2.10
2022-07-30T14:18:54.849Z,1.38
2022-07-30T14:21:21.696Z,1.90
2022-07-30T14:23:48.559Z,1.23
2022-07-30T14:26:15.580Z,5.15
2022-07-30T14:28:42.476Z,1.83
2022-07-30T14:31:09.385Z,1.30
2022-07-30T14:33:36.273Z,0.93
2022-07-30T14:36:03.271Z,1.02
2022-07-30T14:38:30.178Z,2.10
2022-07-30T14:40:57.014Z,1.27
2022-07-30T14:43:23.870Z,1.42
2022-07-30T14:45:50.720Z,1.58
2022-07-30T14:48:17.817Z,3.70
2022-07-30T14:51:11.682Z,1.25
2022-07-30T14:53:31.596Z,1.40
2022-07-30T14:55:58.437Z,1.67
2022-07-30T14:58:25.626Z,1.30
2022-07-30T15:00:52.677Z,1.65
2022-07-30T15:03:20.688Z,1.98
2022-07-30T15:05:52.294Z,1.92
2022-07-30T15:08:19.630Z,1.15
2022-07-30T15:10:46.483Z,0.88
2022-07-30T15:13:14.590Z,1.50
2022-07-30T15:15:42.189Z,1.90
2022-07-30T15:18:12.122Z,1.70
2022-07-30T15:20:39.171Z,1.30
2022-07-30T15:23:08.444Z,3.33
2022-07-30T15:25:38.611Z,1.60
2022-07-30T15:28:05.508Z,2.42
2022-07-30T15:30:32.403Z,1.25
2022-07-30T15:32:59.275Z,1.60
2022-07-30T15:35:26.129Z,1.60
2022-07-30T15:37:53.012Z,2.05
2022-07-30T15:40:19.992Z,1.85
2022-07-30T15:42:46.858Z,1.95
2022-07-30T15:45:17.748Z,3.42
2022-07-30T15:47:45.302Z,1.67
2022-07-30T15:50:12.249Z,2.70
2022-07-30T15:52:39.146Z,1.73
2022-07-30T15:55:07.117Z,1.80
2022-07-30T15:57:34.186Z,1.30
2022-07-30T16:00:01.079Z,1.20
2022-07-30T16:02:28.052Z,1.70
2022-07-30T16:04:54.904Z,1.83
2022-07-30T16:07:21.802Z,1.80
2022-07-30T16:09:48.646Z,2.20
2022-07-30T16:12:15.529Z,1.55
2022-07-30T16:14:42.453Z,1.70
2022-07-30T16:17:13.218Z,1.05
2022-07-30T16:19:41.327Z,2.10
2022-07-30T16:22:12.136Z,1.38
2022-07-30T16:24:41.995Z,1.77
2022-07-30T16:27:10.651Z,2.17
2022-07-30T16:29:37.528Z,3.58
2022-07-30T16:32:05.211Z,4.15
2022-07-30T16:34:32.383Z,1.50
2022-07-30T16:36:59.264Z,1.58
2022-07-30T16:39:30.685Z,1.38
2022-07-30T16:41:57.668Z,3.75
2022-07-30T16:44:24.478Z,3.10
2022-07-30T16:46:51.358Z,1.80
2022-07-30T16:49:18.240Z,1.65
2022-07-30T16:51:45.247Z,1.27
2022-07-30T16:54:12.067Z,1.40
2022-07-30T16:56:38.971Z,1.88
2022-07-30T16:59:06.526Z,2.17
2022-07-30T17:01:35.470Z,1.33
2022-07-30T17:04:02.394Z,4.15
2022-07-30T17:06:29.261Z,2.53
2022-07-30T17:08:56.105Z,2.90
2022-07-30T17:11:46.659Z,3.05
2022-07-30T17:14:09.876Z,1.58
2022-07-30T17:16:39.192Z,1.85
2022-07-30T17:19:09.707Z,2.33
2022-07-30T17:21:37.416Z,1.90
2022-07-30T17:24:04.998Z,1.77
2022-07-30T17:26:31.849Z,2.35
2022-07-30T17:28:58.692Z,1.63
2022-07-30T17:31:25.537Z,2.80
2022-07-30T17:33:52.387Z,2.22
2022-07-30T17:36:19.243Z,2.03
2022-07-30T17:38:46.071Z,3.58
2022-07-30T17:41:13.639Z,2.75
2022-07-30T17:43:40.614Z,2.35
2022-07-30T17:46:07.537Z,2.08
2022-07-30T17:48:34.449Z,3.00
2022-07-30T17:51:01.996Z,1.73
2022-07-30T17:53:29.332Z,1.83
2022-07-30T17:55:57.800Z,3.63
2022-07-30T17:58:25.532Z,1.70
2022-07-30T18:00:52.591Z,3.35
2022-07-30T18:03:19.495Z,2.10
2022-07-30T18:05:46.430Z,3.33
2022-07-30T18:08:13.268Z,3.00
2022-07-30T18:10:40.144Z,2.40
2022-07-30T18:13:26.316Z,1.83
2022-07-30T18:15:54.024Z,2.78
2022-07-30T18:18:20.871Z,3.45
2022-07-30T18:20:48.538Z,3.05
2022-07-30T18:23:15.680Z,4.07
2022-07-30T18:25:51.418Z,13.27
2022-07-30T18:28:19.032Z,5.20
2022-07-30T18:30:45.913Z,2.63
2022-07-30T18:33:12.777Z,5.10
2022-07-30T18:35:39.672Z,5.60
2022-07-30T18:38:06.748Z,3.15
2022-07-30T18:40:33.644Z,2.33
2022-07-30T18:43:00.612Z,3.25
2022-07-30T18:45:27.623Z,3.30
2022-07-30T18:47:55.407Z,2.90
2022-07-30T18:50:23.654Z,2.33
2022-07-30T18:52:51.102Z,3.45
2022-07-30T18:55:18.128Z,2.75
2022-07-30T18:57:45.232Z,2.60
2022-07-30T19:00:34.443Z,2.88
2022-07-30T19:03:00.967Z,3.28
2022-07-30T19:05:27.923Z,2.97
2022-07-30T19:07:57.003Z,4.40
2022-07-30T19:10:26.949Z,3.10
2022-07-30T19:12:55.374Z,3.40
2022-07-30T19:15:22.250Z,3.65
2022-07-30T19:17:49.358Z,2.78
2022-07-30T19:20:16.231Z,4.55
2022-07-30T19:22:43.114Z,3.00
2022-07-30T19:25:11.043Z,3.72
2022-07-30T19:27:37.882Z,3.47
2022-07-30T19:30:05.774Z,3.95
2022-07-30T19:32:32.688Z,2.88
2022-07-30T19:34:59.623Z,3.38
2022-07-30T19:37:26.459Z,3.42
2022-07-30T19:40:06.367Z,6.32
2022-07-30T19:42:34.011Z,3.40
2022-07-30T19:45:04.120Z,8.18
2022-07-30T19:47:39.224Z,3.30
2022-07-30T19:50:07.594Z,3.08
2022-07-30T19:52:36.612Z,4.47
2022-07-30T19:55:03.876Z,3.13
2022-07-30T19:57:53.523Z,4.00
2022-07-30T20:00:24.565Z,4.10
2022-07-30T20:02:52.505Z,3.00
2022-07-30T20:05:20.032Z,3.88
2022-07-30T20:07:46.965Z,3.58
2022-07-30T20:10:16.181Z,4.20
2022-07-30T20:12:49.042Z,5.03
2022-07-30T20:15:16.619Z,6.10
2022-07-30T20:17:43.625Z,4.10
2022-07-30T20:20:13.508Z,6.35
2022-07-30T20:22:40.718Z,4.18
2022-07-30T20:25:08.968Z,5.03
2022-07-30T20:27:38.499Z,4.70
2022-07-30T20:30:07.193Z,4.43
2022-07-30T20:32:35.036Z,4.75
2022-07-30T20:35:03.617Z,4.65
2022-07-30T20:37:30.496Z,5.07
2022-07-30T20:39:57.448Z,5.05
2022-07-30T20:42:24.726Z,4.65
2022-07-30T20:44:51.941Z,5.00
2022-07-30T20:47:34.309Z,4.82
2022-07-30T20:50:09.298Z,4.78
2022-07-30T20:52:38.154Z,5.30
2022-07-30T20:55:12.975Z,5.72
2022-07-30T20:57:56.392Z,5.20
2022-07-30T21:00:28.501Z,5.35
2022-07-30T21:02:55.368Z,5.80
2022-07-30T21:05:22.452Z,5.15
2022-07-30T21:07:53.946Z,5.93
2022-07-30T21:10:23.614Z,8.25
2022-07-30T21:12:52.890Z,5.70
2022-07-30T21:15:24.280Z,5.97
2022-07-30T21:17:51.553Z,7.43
2022-07-30T21:20:27.667Z,8.27
2022-07-30T21:22:55.900Z,7.07
2022-07-30T21:25:23.515Z,5.65
2022-07-30T21:28:03.282Z,5.38
2022-07-30T21:30:32.724Z,6.63
2022-07-30T21:32:59.781Z,6.78
2022-07-30T21:35:32.066Z,6.28
2022-07-30T21:37:59.446Z,6.75
2022-07-30T21:40:26.328Z,6.80
2022-07-30T21:42:53.225Z,6.50
2022-07-30T21:45:20.156Z,6.50
2022-07-30T21:47:48.207Z,6.35
2022-07-30T21:50:16.223Z,7.30
2022-07-30T21:52:44.121Z,7.13
2022-07-30T21:55:13.287Z,7.00
2022-07-30T21:57:41.064Z,5.45
2022-07-30T22:00:15.574Z,7.55
2022-07-30T22:05:38.327Z,7.25
2022-07-30T22:08:07.580Z,6.43
2022-07-30T22:10:36.364Z,7.22
2022-07-30T22:13:04.126Z,6.25
2022-07-30T22:15:31.504Z,8.55
2022-07-30T22:18:00.670Z,6.57
2022-07-30T22:20:28.849Z,6.22
2022-07-30T22:22:56.972Z,6.72
2022-07-30T22:25:24.180Z,6.03
2022-07-30T22:28:08.827Z,5.72
2022-07-30T22:30:35.653Z,5.82
2022-07-30T22:33:15.996Z,6.57
2022-07-30T22:35:46.690Z,6.68
2022-07-30T22:38:16.906Z,6.10
2022-07-30T22:40:46.730Z,6.10
2022-07-30T22:43:15.960Z,8.40
2022-07-30T22:45:49.049Z,6.82
2022-07-30T22:48:17.311Z,5.85
2022-07-30T22:50:45.934Z,6.63
2022-07-30T22:54:03.657Z,8.07
2022-07-30T22:56:02.449Z,7.20
2022-07-30T22:58:30.621Z,6.18
2022-07-30T23:00:57.508Z,7.03
2022-07-30T23:03:24.414Z,6.07
2022-07-30T23:05:56.582Z,6.25
2022-07-30T23:08:29.509Z,6.97
2022-07-30T23:10:57.816Z,5.97
2022-07-30T23:12:32.094Z,6.97
2022-07-30T23:13:24.699Z,6.70
2022-07-30T23:15:51.542Z,7.32
2022-07-30T23:18:18.468Z,6.88
2022-07-30T23:20:45.289Z,6.07
2022-07-30T23:23:12.178Z,6.10
2022-07-30T23:25:39.448Z,8.20
2022-07-30T23:28:06.593Z,7.47
2022-07-30T23:30:33.880Z,6.40
2022-07-30T23:33:01.203Z,6.68
2022-07-30T23:35:28.111Z,6.95
2022-07-30T23:37:54.944Z,6.68
2022-07-30T23:40:21.816Z,7.07
2022-07-30T23:42:48.770Z,7.13
2022-07-30T23:45:15.754Z,6.40
2022-07-30T23:48:01.763Z,6.18
2022-07-30T23:50:31.465Z,5.68
2022-07-30T23:52:58.591Z,5.53
2022-07-30T23:55:25.483Z,6.07
2022-07-30T23:57:52.538Z,5.35
